Time;durP1;ratioP1;P1;durP2;ratioP2;P2;SDS_P1;SDS_P2;PMS_P1;PMS_P2;Temp;Humidity;BMP_temperature;BMP_pressure;BME280_temperature;BME280_humidity;BME280_pressure;Samples;Min_cycle;Max_cycle;Signal;HPM_P1;HPM_P2
2022/08/14 00:00:54;;;;;;;7.88;6.05;;;24.10;99.90;;;;;;5028089;28;20192;-71
2022/08/14 00:03:25;;;;;;;8.32;6.55;;;24.10;99.90;;;;;;5011749;28;20658;-71
2022/08/14 00:05:52;;;;;;;6.90;6.20;;;24.10;99.90;;;;;;5027998;28;20239;-71
2022/08/14 00:08:18;;;;;;;7.63;6.82;;;24.10;99.90;;;;;;5009461;28;20212;-72
2022/08/14 00:10:43;;;;;;;7.65;6.50;;;24.10;99.90;;;;;;5026242;28;20801;-70
2022/08/14 00:13:10;;;;;;;7.75;6.70;;;24.10;99.90;;;;;;5007930;28;20697;-71
2022/08/14 00:15:38;;;;;;;8.20;6.20;;;24.00;99.90;;;;;;5028861;28;20205;-71
2022/08/14 00:18:08;;;;;;;7.05;6.30;;;24.10;99.90;;;;;;5025052;28;20211;-69
2022/08/14 00:20:37;;;;;;;9.35;7.13;;;24.00;99.90;;;;;;5026456;28;20232;-72
2022/08/14 00:23:05;;;;;;;7.65;6.50;;;24.00;99.90;;;;;;5028769;28;20342;-73
2022/08/14 00:25:31;;;;;;;7.40;6.13;;;24.00;99.90;;;;;;5027773;28;20200;-72
2022/08/14 00:27:56;;;;;;;10.15;6.90;;;23.90;99.90;;;;;;5026762;28;20736;-71
2022/08/14 00:30:22;;;;;;;8.60;7.55;;;23.90;99.90;;;;;;5024467;28;20266;-71
2022/08/14 00:32:48;;;;;;;7.70;6.80;;;24.00;99.90;;;;;;5029736;28;20275;-71
2022/08/14 00:35:13;;;;;;;8.40;6.55;;;23.90;99.90;;;;;;5026076;28;20196;-71
2022/08/14 00:37:42;;;;;;;6.63;5.93;;;23.80;99.90;;;;;;5013548;28;20184;-71
2022/08/14 00:40:10;;;;;;;7.65;6.85;;;23.90;99.90;;;;;;5027715;28;20700;-71
2022/08/14 00:42:36;;;;;;;7.50;6.70;;;23.70;99.90;;;;;;5026569;28;20231;-71
2022/08/14 00:45:03;;;;;;;6.95;6.10;;;23.80;99.90;;;;;;5025679;28;20634;-71
2022/08/14 00:47:29;;;;;;;10.07;7.25;;;23.80;99.90;;;;;;5012965;28;20227;-71
2022/08/14 00:49:55;;;;;;;8.20;6.88;;;23.70;99.90;;;;;;5026701;28;20216;-71
2022/08/14 00:52:21;;;;;;;9.27;6.65;;;23.80;99.90;;;;;;5025421;28;20173;-71
2022/08/14 00:54:53;;;;;;;9.20;7.65;;;23.70;99.90;;;;;;5025361;28;20204;-71
2022/08/14 00:57:20;;;;;;;8.40;7.60;;;23.70;99.90;;;;;;5027470;28;20220;-71
2022/08/14 00:59:46;;;;;;;9.48;7.03;;;23.60;99.90;;;;;;5025037;28;20231;-71
2022/08/14 01:02:17;;;;;;;7.30;6.60;;;23.60;99.90;;;;;;5023873;28;20235;-72
2022/08/14 01:04:44;;;;;;;8.82;6.65;;;23.60;99.90;;;;;;5023090;28;20625;-71
2022/08/14 01:07:10;;;;;;;8.63;7.40;;;23.50;99.90;;;;;;5028047;28;20200;-72
2022/08/14 01:09:37;;;;;;;7.55;6.75;;;23.50;99.90;;;;;;5024030;28;20710;-71
2022/08/14 01:12:04;;;;;;;8.50;7.50;;;23.50;99.90;;;;;;5023318;28;20199;-71
2022/08/14 01:14:30;;;;;;;8.82;7.78;;;23.50;99.90;;;;;;5027644;28;20291;-71
2022/08/14 01:16:55;;;;;;;9.25;7.10;;;23.50;99.90;;;;;;5027271;28;20636;-71
2022/08/14 01:22:06;;;;;;;9.38;7.60;;;23.40;99.90;;;;;;5026699;28;20242;-71
2022/08/14 01:24:32;;;;;;;10.32;7.93;;;23.40;99.90;;;;;;5027037;28;20751;-71
2022/08/14 01:26:58;;;;;;;8.32;7.53;;;23.40;99.90;;;;;;5024610;28;20257;-71
2022/08/14 01:29:25;;;;;;;8.10;7.30;;;23.40;99.90;;;;;;5019857;28;20212;-71
2022/08/14 01:31:54;;;;;;;8.55;7.65;;;23.40;99.90;;;;;;5029276;28;20477;-72
2022/08/14 01:34:22;;;;;;;9.45;7.30;;;23.50;99.90;;;;;;5025522;28;20552;-73
2022/08/14 01:36:49;;;;;;;8.23;7.40;;;23.50;99.90;;;;;;5024551;28;20542;-72
2022/08/14 01:39:16;;;;;;;9.50;7.80;;;23.60;99.90;;;;;;5012834;28;20208;-72
2022/08/14 01:41:45;;;;;;;8.52;7.38;;;23.60;99.90;;;;;;5026990;28;20208;-73
2022/08/14 01:44:14;;;;;;;8.13;7.07;;;23.60;99.90;;;;;;5006582;28;20230;-72
2022/08/14 01:46:43;;;;;;;9.20;7.45;;;23.70;99.90;;;;;;5021787;28;20595;-72
2022/08/14 01:49:11;;;;;;;11.23;8.57;;;23.70;99.90;;;;;;5040341;23;20235;-67
2022/08/14 01:51:38;;;;;;;8.77;7.63;;;23.60;99.90;;;;;;5036968;28;20707;-66
2022/08/14 01:54:30;;;;;;;8.07;7.35;;;23.60;99.90;;;;;;5031975;28;20366;-67
2022/08/14 01:56:57;;;;;;;10.82;8.00;;;23.60;99.90;;;;;;5034724;28;20203;-66
2022/08/14 01:59:31;;;;;;;9.70;8.02;;;23.50;99.90;;;;;;5035190;28;20216;-67
2022/08/14 02:02:04;;;;;;;8.32;7.53;;;23.50;99.90;;;;;;5032889;28;20204;-67
2022/08/14 02:04:34;;;;;;;8.65;7.70;;;23.50;99.90;;;;;;5031632;28;20700;-66
2022/08/14 02:07:01;;;;;;;9.10;8.18;;;23.50;99.90;;;;;;5040901;28;20188;-66
2022/08/14 02:09:30;;;;;;;9.02;7.90;;;23.60;99.90;;;;;;5034393;28;20766;-66
2022/08/14 02:11:55;;;;;;;8.60;7.80;;;23.60;99.90;;;;;;5026273;28;20207;-66
2022/08/14 02:14:22;;;;;;;8.27;7.47;;;23.60;99.90;;;;;;5036775;28;20204;-67
2022/08/14 02:16:52;;;;;;;8.38;7.38;;;23.60;99.90;;;;;;5034145;28;20268;-67
2022/08/14 02:19:21;;;;;;;9.32;8.38;;;23.60;99.90;;;;;;5032551;28;20204;-67
2022/08/14 02:21:53;;;;;;;8.32;7.43;;;23.70;99.90;;;;;;5035944;28;20629;-67
2022/08/14 02:24:20;;;;;;;8.55;7.85;;;23.70;99.90;;;;;;5036855;28;20211;-68
2022/08/14 02:26:48;;;;;;;8.70;7.82;;;23.60;99.90;;;;;;5034996;28;20625;-66
2022/08/14 02:29:17;;;;;;;8.65;7.78;;;23.60;99.90;;;;;;5030959;28;20204;-65
2022/08/14 02:31:48;;;;;;;9.32;8.15;;;23.60;99.90;;;;;;5019584;28;20183;-67
2022/08/14 02:34:19;;;;;;;8.43;7.63;;;23.70;99.90;;;;;;5023661;28;20200;-66
2022/08/14 02:36:50;;;;;;;8.60;7.47;;;23.60;99.90;;;;;;5023062;28;20282;-65
2022/08/14 02:39:16;;;;;;;9.00;8.10;;;23.60;99.90;;;;;;5007285;28;20773;-67
2022/08/14 02:41:42;;;;;;;8.85;7.97;;;23.60;99.90;;;;;;5025127;28;20208;-67
2022/08/14 02:44:09;;;;;;;8.52;7.72;;;23.60;99.90;;;;;;5028370;28;20216;-68
2022/08/14 02:46:36;;;;;;;8.75;7.90;;;23.50;99.90;;;;;;5025652;28;20188;-67
2022/08/14 02:49:05;;;;;;;9.13;8.20;;;23.60;99.90;;;;;;5023205;28;20213;-66
2022/08/14 02:51:31;;;;;;;12.27;7.85;;;23.60;99.90;;;;;;5007262;28;20215;-68
2022/08/14 02:53:57;;;;;;;8.52;7.70;;;23.60;99.90;;;;;;5021577;28;20208;-67
2022/08/14 02:56:24;;;;;;;10.18;7.57;;;23.50;99.90;;;;;;5026984;28;20208;-67
2022/08/14 02:58:50;;;;;;;8.77;7.97;;;23.60;99.90;;;;;;5027973;28;20279;-67
2022/08/14 03:01:18;;;;;;;7.82;7.07;;;23.60;99.90;;;;;;5029526;28;20177;-67
2022/08/14 03:03:47;;;;;;;9.02;8.13;;;23.60;99.90;;;;;;5022029;28;20208;-66
2022/08/14 03:06:13;;;;;;;8.50;7.70;;;23.70;99.90;;;;;;5025368;28;20208;-68
2022/08/14 03:08:40;;;;;;;8.48;7.45;;;23.70;99.90;;;;;;5023941;28;20650;-67
2022/08/14 03:11:08;;;;;;;9.45;8.52;;;23.70;99.90;;;;;;5004817;28;20212;-67
2022/08/14 03:13:42;;;;;;;8.65;7.72;;;23.60;99.90;;;;;;5025234;28;20551;-68
2022/08/14 03:16:13;;;;;;;9.15;7.78;;;23.60;99.90;;;;;;5022069;28;20180;-68
2022/08/14 03:18:43;;;;;;;10.77;8.00;;;23.60;99.90;;;;;;5028648;28;20209;-67
2022/08/14 03:21:17;;;;;;;8.77;7.90;;;23.60;99.90;;;;;;5023432;28;20225;-67
2022/08/14 03:23:45;;;;;;;9.45;7.97;;;23.60;99.90;;;;;;5024533;28;20739;-67
2022/08/14 03:26:14;;;;;;;9.68;8.40;;;23.60;99.90;;;;;;5022089;28;20224;-69
2022/08/14 03:28:42;;;;;;;9.80;8.60;;;23.50;99.90;;;;;;5022241;28;20227;-67
2022/08/14 03:31:10;;;;;;;9.63;8.68;;;23.60;99.90;;;;;;5030617;28;20658;-67
2022/08/14 03:33:37;;;;;;;9.23;8.32;;;23.50;99.90;;;;;;5023092;28;20208;-68
2022/08/14 03:36:07;;;;;;;8.25;7.45;;;23.60;99.90;;;;;;5021539;28;20292;-65
2022/08/14 03:38:33;;;;;;;10.25;8.45;;;23.50;99.90;;;;;;5024448;28;20215;-67
2022/08/14 03:40:58;;;;;;;9.55;8.50;;;23.50;99.90;;;;;;5022638;28;20582;-67
2022/08/14 03:43:24;;;;;;;12.77;9.10;;;23.50;99.90;;;;;;5023832;28;20175;-68
2022/08/14 03:45:49;;;;;;;9.15;8.25;;;23.50;99.90;;;;;;5021417;28;20205;-68
2022/08/14 03:48:18;;;;;;;8.63;7.82;;;23.40;99.90;;;;;;5023967;28;20217;-67
2022/08/14 03:50:50;;;;;;;10.82;8.85;;;23.40;99.90;;;;;;5035834;28;20196;-68
2022/08/14 03:53:17;;;;;;;14.13;8.80;;;23.40;99.90;;;;;;5037747;28;20203;-67
2022/08/14 03:55:43;;;;;;;10.27;8.40;;;23.40;99.90;;;;;;5041774;28;20180;-68
2022/08/14 03:58:10;;;;;;;9.70;8.70;;;23.40;99.90;;;;;;5023356;28;20201;-67
2022/08/14 04:00:37;;;;;;;9.00;8.10;;;23.40;99.90;;;;;;5026081;28;20208;-67
2022/08/14 04:03:04;;;;;;;11.38;8.18;;;23.40;99.90;;;;;;5021887;28;20212;-67
2022/08/14 04:05:31;;;;;;;9.20;8.40;;;23.40;99.90;;;;;;5024343;28;20224;-67
2022/08/14 04:07:57;;;;;;;11.35;8.82;;;23.30;99.90;;;;;;5021632;28;20314;-67
2022/08/14 04:10:23;;;;;;;9.15;8.25;;;23.30;99.90;;;;;;5023599;28;20180;-67
2022/08/14 04:12:49;;;;;;;10.20;9.15;;;23.30;99.90;;;;;;5024220;28;20287;-68
2022/08/14 04:15:18;;;;;;;10.32;8.93;;;23.30;99.90;;;;;;5020631;28;20287;-67
2022/08/14 04:17:44;;;;;;;11.50;9.20;;;23.30;99.90;;;;;;5022290;28;20224;-67
2022/08/14 04:20:11;;;;;;;9.52;8.60;;;23.20;99.90;;;;;;5022387;28;20225;-67
2022/08/14 04:22:39;;;;;;;12.60;9.20;;;23.30;99.90;;;;;;5024003;28;20180;-67
2022/08/14 04:25:06;;;;;;;10.82;9.25;;;23.30;99.90;;;;;;5020689;28;20193;-67
2022/08/14 04:27:32;;;;;;;12.88;9.13;;;23.20;99.90;;;;;;5023198;28;20208;-67
2022/08/14 04:29:58;;;;;;;10.05;8.95;;;23.30;99.90;;;;;;5018907;28;20209;-67
2022/08/14 04:32:25;;;;;;;10.50;8.52;;;23.40;99.90;;;;;;5021397;28;20601;-67
2022/08/14 04:34:52;;;;;;;9.18;8.23;;;23.40;99.90;;;;;;5021869;28;20200;-67
2022/08/14 04:45:39;;;;;;;9.63;8.43;;;23.50;99.90;;;;;;5020495;28;20211;-68
2022/08/14 04:48:13;;;;;;;9.80;8.90;;;23.60;99.90;;;;;;5029747;28;20203;-67
2022/08/14 04:50:45;;;;;;;11.95;8.65;;;23.70;99.90;;;;;;5037873;28;20941;-68
2022/08/14 04:53:13;;;;;;;10.73;8.65;;;23.70;99.90;;;;;;5034391;28;20208;-68
2022/08/14 04:55:47;;;;;;;11.35;8.70;;;23.80;99.90;;;;;;5034655;28;20180;-68
2022/08/14 04:58:14;;;;;;;10.10;9.10;;;24.00;99.90;;;;;;5039544;28;20274;-69
2022/08/14 05:00:40;;;;;;;11.85;9.02;;;24.20;99.90;;;;;;5037210;28;20244;-68
2022/08/14 05:03:07;;;;;;;13.38;8.48;;;24.30;99.90;;;;;;5032687;28;20239;-68
2022/08/14 05:05:33;;;;;;;9.40;8.05;;;24.50;99.90;;;;;;5036025;28;20716;-68
2022/08/14 05:08:10;;;;;;;10.88;8.73;;;24.90;99.90;;;;;;5036868;28;20795;-68
2022/08/14 05:10:38;;;;;;;9.52;8.65;;;25.80;99.90;;;;;;5033368;28;20182;-68
2022/08/14 05:13:04;;;;;;;9.13;8.18;;;26.80;99.90;;;;;;5035597;28;20211;-68
2022/08/14 05:15:33;;;;;;;10.63;9.52;;;27.70;99.90;;;;;;5037995;28;20215;-67
2022/08/14 05:18:00;;;;;;;8.82;7.93;;;27.80;99.90;;;;;;5032806;28;20208;-67
2022/08/14 05:20:26;;;;;;;9.60;8.35;;;27.70;99.90;;;;;;5029625;28;20254;-66
2022/08/14 05:22:51;;;;;;;11.20;8.88;;;27.60;99.90;;;;;;5037581;28;20207;-66
2022/08/14 05:25:19;;;;;;;10.10;9.10;;;27.80;99.90;;;;;;5035884;28;20230;-66
2022/08/14 05:27:44;;;;;;;10.88;8.13;;;28.90;99.90;;;;;;5034351;28;20200;-63
2022/08/14 05:30:10;;;;;;;11.27;8.38;;;30.00;99.90;;;;;;5034592;28;20200;-65
2022/08/14 05:32:37;;;;;;;14.88;8.35;;;29.60;99.90;;;;;;5021001;28;20204;-67
2022/08/14 05:35:03;;;;;;;7.97;7.18;;;30.70;99.90;;;;;;5034459;28;20216;-69
2022/08/14 05:37:29;;;;;;;10.13;7.40;;;31.50;99.90;;;;;;5032413;28;20168;-68
2022/08/14 05:39:55;;;;;;;8.65;7.20;;;32.20;99.90;;;;;;5036023;28;20249;-67
2022/08/14 05:42:21;;;;;;;12.70;10.80;;;32.60;99.90;;;;;;5035366;28;20208;-66
2022/08/14 05:44:47;;;;;;;8.48;7.60;;;32.30;99.90;;;;;;5034250;28;20218;-67
2022/08/14 05:47:12;;;;;;;8.40;7.35;;;32.70;99.90;;;;;;5030811;28;20684;-68
2022/08/14 05:49:38;;;;;;;7.65;6.95;;;32.90;99.90;;;;;;5038518;28;20262;-69
2022/08/14 05:52:04;;;;;;;7.70;6.90;;;33.80;99.90;;;;;;5034742;28;20662;-67
2022/08/14 05:54:30;;;;;;;7.00;6.30;;;34.30;99.90;;;;;;5032402;28;20204;-69
2022/08/14 05:56:56;;;;;;;10.35;6.57;;;34.80;99.90;;;;;;5038987;28;20904;-67
2022/08/14 05:59:22;;;;;;;7.63;6.93;;;34.90;99.90;;;;;;5034829;28;20298;-67
2022/08/14 06:01:47;;;;;;;7.43;6.72;;;34.20;99.90;;;;;;5016623;28;20266;-67
2022/08/14 06:04:13;;;;;;;7.38;6.78;;;34.60;99.90;;;;;;5031279;28;20681;-67
2022/08/14 06:06:38;;;;;;;8.60;7.03;;;35.80;99.90;;;;;;5038944;28;20214;-67
2022/08/14 06:09:06;;;;;;;7.75;7.05;;;35.40;99.90;;;;;;5016102;28;20294;-65
2022/08/14 06:11:31;;;;;;;8.05;6.57;;;35.60;99.90;;;;;;5032439;28;20211;-67
2022/08/14 06:13:57;;;;;;;8.10;7.30;;;36.30;99.90;;;;;;5037380;28;20203;-67
2022/08/14 06:16:23;;;;;;;10.98;7.13;;;36.30;99.90;;;;;;5035902;28;20168;-69
2022/08/14 06:18:48;;;;;;;6.88;6.18;;;35.50;99.90;;;;;;5031824;28;20203;-66
2022/08/14 06:21:14;;;;;;;8.30;7.60;;;35.60;99.90;;;;;;5030704;28;20206;-67
2022/08/14 06:23:40;;;;;;;8.00;7.30;;;35.60;99.90;;;;;;5039395;28;20609;-67
2022/08/14 06:26:05;;;;;;;8.93;8.23;;;35.70;99.90;;;;;;5030148;28;20269;-67
2022/08/14 06:28:31;;;;;;;7.30;6.57;;;34.90;99.90;;;;;;5031878;28;20195;-67
2022/08/14 06:30:56;;;;;;;8.23;7.22;;;35.40;99.90;;;;;;5037507;28;20267;-67
2022/08/14 06:33:23;;;;;;;7.95;7.18;;;35.30;99.90;;;;;;5035563;28;20238;-67
2022/08/14 06:35:48;;;;;;;9.63;7.53;;;35.90;99.90;;;;;;5034176;28;20217;-68
2022/08/14 06:38:22;;;;;;;8.45;7.65;;;36.20;99.90;;;;;;5030465;28;20215;-66
2022/08/14 06:40:49;;;;;;;9.38;8.52;;;36.00;99.90;;;;;;5032295;28;20179;-68
2022/08/14 06:43:15;;;;;;;9.55;8.63;;;35.90;99.60;;;;;;5034414;28;20180;-66
2022/08/14 06:45:43;;;;;;;8.45;7.75;;;35.70;99.90;;;;;;5031905;28;20227;-68
2022/08/14 06:48:20;;;;;;;7.93;7.32;;;35.40;99.90;;;;;;5032730;28;20578;-68
2022/08/14 06:50:47;;;;;;;10.05;9.25;;;35.10;99.90;;;;;;5031740;28;20207;-67
2022/08/14 06:53:15;;;;;;;9.65;7.68;;;34.40;99.90;;;;;;5032551;28;20655;-68
2022/08/14 06:55:42;;;;;;;8.63;7.72;;;35.10;99.90;;;;;;5033357;28;20306;-66
2022/08/14 06:58:18;;;;;;;8.30;7.50;;;35.70;99.90;;;;;;5038915;28;20279;-68
2022/08/14 07:05:45;;;;;;;8.80;8.05;;;35.60;99.80;;;;;;5035011;28;20226;-68
2022/08/14 07:06:16;;;;;;;8.13;7.30;;;35.70;99.50;;;;;;5032337;28;20592;-68
2022/08/14 07:08:42;;;;;;;7.53;6.93;;;35.90;99.40;;;;;;5039508;28;20684;-68
2022/08/14 07:11:09;;;;;;;8.82;7.93;;;36.30;98.90;;;;;;5035176;28;20212;-68
2022/08/14 07:13:35;;;;;;;8.73;7.93;;;35.60;98.40;;;;;;5039464;28;20180;-68
2022/08/14 07:16:01;;;;;;;7.47;6.88;;;34.70;99.50;;;;;;5040494;28;20232;-67
2022/08/14 07:18:29;;;;;;;7.80;7.00;;;35.20;99.70;;;;;;5034507;28;20780;-68
2022/08/14 07:20:56;;;;;;;8.45;7.65;;;36.00;98.80;;;;;;5016520;28;20203;-68
2022/08/14 07:23:25;;;;;;;8.05;7.38;;;35.40;98.50;;;;;;5040085;28;20211;-68
2022/08/14 07:25:52;;;;;;;9.30;8.30;;;36.30;98.30;;;;;;5039044;28;20215;-69
2022/08/14 07:28:22;;;;;;;8.32;7.63;;;36.30;97.00;;;;;;5035288;28;20550;-68
2022/08/14 07:30:49;;;;;;;8.90;8.20;;;36.30;97.70;;;;;;5040030;28;20209;-68
2022/08/14 07:33:15;;;;;;;10.20;8.30;;;36.40;97.20;;;;;;5038605;28;20266;-68
2022/08/14 07:35:40;;;;;;;8.45;7.65;;;35.60;97.90;;;;;;5037567;28;20211;-68
2022/08/14 07:38:07;;;;;;;8.68;7.97;;;35.90;97.80;;;;;;5033474;28;20226;-68
2022/08/14 07:40:33;;;;;;;8.80;8.00;;;36.00;97.30;;;;;;5023450;28;20180;-68
2022/08/14 07:43:00;;;;;;;10.13;7.78;;;35.80;97.20;;;;;;5038296;28;20168;-68
2022/08/14 07:45:27;;;;;;;8.57;7.53;;;36.50;97.00;;;;;;5017387;28;20254;-68
2022/08/14 07:47:56;;;;;;;7.93;7.22;;;36.90;96.70;;;;;;5035572;28;20738;-68
2022/08/14 07:50:22;;;;;;;11.25;10.10;;;37.30;96.50;;;;;;5029113;23;20228;-70
2022/08/14 07:52:48;;;;;;;10.93;9.82;;;37.40;95.30;;;;;;5007931;28;20215;-70
2022/08/14 07:55:15;;;;;;;9.20;8.18;;;37.40;95.40;;;;;;5006847;28;20192;-71
2022/08/14 07:57:42;;;;;;;8.82;8.02;;;37.70;95.20;;;;;;5011251;28;20211;-70
2022/08/14 08:00:12;;;;;;;8.65;7.78;;;38.10;94.70;;;;;;5006415;28;20205;-70
2022/08/14 08:02:40;;;;;;;9.18;8.20;;;37.20;94.70;;;;;;5004053;28;20213;-70
2022/08/14 08:05:07;;;;;;;9.10;8.20;;;37.40;94.90;;;;;;5005018;28;20227;-70
2022/08/14 08:07:34;;;;;;;8.95;8.10;;;36.50;94.60;;;;;;5008692;28;20177;-70
2022/08/14 08:12:54;;;;;;;8.23;7.43;;;35.90;94.70;;;;;;5005242;28;20214;-70
2022/08/14 08:15:20;;;;;;;8.68;7.60;;;35.70;95.40;;;;;;5009970;28;20203;-71
2022/08/14 08:17:46;;;;;;;8.55;7.28;;;35.90;95.20;;;;;;5008236;28;20287;-69
2022/08/14 08:20:17;;;;;;;8.20;7.10;;;35.60;94.90;;;;;;4991693;28;20208;-70
2022/08/14 08:22:43;;;;;;;9.80;7.95;;;36.40;95.10;;;;;;5006472;28;20292;-71
2022/08/14 08:25:10;;;;;;;8.15;7.32;;;36.40;94.10;;;;;;5009356;28;20283;-71
2022/08/14 08:27:36;;;;;;;7.80;6.82;;;36.70;94.40;;;;;;5005427;28;20208;-71
2022/08/14 08:30:06;;;;;;;8.85;7.95;;;37.50;93.80;;;;;;4985860;28;20208;-71
2022/08/14 08:32:41;;;;;;;8.43;7.63;;;37.70;93.50;;;;;;5008365;28;20335;-71
2022/08/14 08:35:17;;;;;;;9.20;8.27;;;38.70;92.80;;;;;;5002739;28;20246;-71
2022/08/14 08:37:42;;;;;;;8.25;7.47;;;37.10;91.80;;;;;;5010580;28;20211;-70
2022/08/14 08:40:08;;;;;;;7.63;6.80;;;36.60;93.20;;;;;;5008066;28;20547;-71
2022/08/14 08:42:34;;;;;;;7.72;6.95;;;36.00;93.80;;;;;;5007084;28;20237;-71
2022/08/14 08:45:00;;;;;;;7.70;7.00;;;36.90;93.50;;;;;;5002434;28;20303;-71
2022/08/14 08:47:36;;;;;;;8.90;7.72;;;37.10;92.90;;;;;;5004774;28;20279;-70
2022/08/14 08:50:01;;;;;;;7.78;7.07;;;37.70;92.90;;;;;;5009199;28;20216;-71
2022/08/14 08:52:30;;;;;;;6.97;6.43;;;37.80;92.30;;;;;;4992073;28;20549;-71
2022/08/14 08:54:56;;;;;;;7.97;7.15;;;37.80;91.90;;;;;;5004582;28;20252;-72
2022/08/14 08:57:21;;;;;;;7.80;7.07;;;37.60;92.20;;;;;;5006624;28;20216;-71
2022/08/14 08:59:47;;;;;;;9.40;7.25;;;36.80;92.40;;;;;;5006669;28;20645;-71
2022/08/14 09:02:17;;;;;;;8.52;7.18;;;36.90;92.60;;;;;;4987068;28;20629;-71
2022/08/14 09:04:43;;;;;;;7.88;7.18;;;36.80;92.10;;;;;;5007182;28;20198;-71
2022/08/14 09:07:10;;;;;;;7.32;6.05;;;36.70;92.40;;;;;;5009923;28;20228;-71
2022/08/14 09:09:50;;;;;;;7.68;6.47;;;37.60;92.60;;;;;;5005406;28;20213;-71
2022/08/14 09:12:16;;;;;;;8.95;8.15;;;37.80;91.90;;;;;;5002059;28;20279;-71
2022/08/14 09:14:42;;;;;;;9.32;7.00;;;37.00;91.60;;;;;;5008192;28;20215;-71
2022/08/14 09:17:08;;;;;;;9.25;7.78;;;36.80;92.60;;;;;;4993668;28;20208;-70
2022/08/14 09:19:36;;;;;;;7.75;7.15;;;36.40;92.40;;;;;;5005010;28;20204;-72
2022/08/14 09:22:02;;;;;;;8.50;7.63;;;35.20;93.40;;;;;;4994164;28;20196;-70
2022/08/14 09:24:28;;;;;;;7.90;7.20;;;34.60;94.20;;;;;;5008802;28;20221;-71
2022/08/14 09:26:54;;;;;;;7.45;6.65;;;34.30;94.30;;;;;;5007741;28;20209;-72
2022/08/14 09:29:20;;;;;;;7.60;6.90;;;33.70;95.10;;;;;;5001104;28;20218;-71
2022/08/14 09:31:51;;;;;;;9.27;6.38;;;33.70;95.10;;;;;;5005428;28;20185;-68
2022/08/14 09:34:35;;;;;;;8.23;6.75;;;33.90;94.60;;;;;;5007477;28;20173;-71
2022/08/14 09:37:42;;;;;;;6.88;6.28;;;33.70;95.30;;;;;;5003995;28;20219;-70
2022/08/14 09:40:19;;;;;;;7.07;6.05;;;33.90;95.00;;;;;;5009449;28;20217;-71
2022/08/14 09:43:22;;;;;;;7.40;6.63;;;33.30;95.40;;;;;;4997889;28;20208;-70
2022/08/14 09:45:49;;;;;;;6.55;5.47;;;33.30;95.30;;;;;;5003427;28;20208;-71
2022/08/14 09:48:19;;;;;;;6.78;6.10;;;33.00;95.80;;;;;;4992804;28;20201;-70
2022/08/14 09:50:48;;;;;;;9.35;6.93;;;33.30;96.00;;;;;;5007628;28;20240;-70
2022/08/14 09:53:32;;;;;;;6.93;6.22;;;33.60;95.90;;;;;;4986071;28;20263;-71
2022/08/14 09:55:59;;;;;;;7.88;6.05;;;33.30;96.00;;;;;;5000570;28;20224;-72
2022/08/14 09:58:45;;;;;;;8.75;5.75;;;33.20;96.30;;;;;;5007506;28;20173;-70
2022/08/14 10:01:18;;;;;;;6.20;5.60;;;32.80;96.50;;;;;;5006022;28;20255;-71
2022/08/14 10:03:55;;;;;;;8.25;5.28;;;33.20;96.90;;;;;;5003936;28;20233;-71
2022/08/14 10:06:26;;;;;;;7.05;4.78;;;33.10;95.30;;;;;;5001960;28;20213;-73
2022/08/14 10:09:02;;;;;;;7.72;5.32;;;32.50;95.70;;;;;;5004909;28;20211;-71
2022/08/14 10:11:36;;;;;;;7.28;5.60;;;32.80;95.70;;;;;;4988102;28;20213;-71
2022/08/14 10:14:16;;;;;;;5.07;4.53;;;32.70;95.60;;;;;;5006496;28;20295;-71
2022/08/14 10:16:49;;;;;;;5.60;5.05;;;32.70;95.50;;;;;;5007298;28;20177;-71
2022/08/14 10:19:17;;;;;;;7.25;4.57;;;33.00;95.10;;;;;;5002842;28;20678;-71
2022/08/14 10:21:55;;;;;;;6.57;5.10;;;33.30;95.00;;;;;;5001582;28;20220;-71
2022/08/14 10:24:27;;;;;;;16.20;12.18;;;33.30;95.10;;;;;;5005263;28;20237;-70
2022/08/14 10:26:57;;;;;;;6.95;4.65;;;33.80;95.00;;;;;;5006073;28;20207;-71
2022/08/14 10:29:34;;;;;;;4.82;4.32;;;33.80;94.20;;;;;;5000027;28;20210;-71
2022/08/14 10:32:00;;;;;;;5.75;4.65;;;33.10;94.20;;;;;;5006145;28;20205;-71
2022/08/14 10:34:38;;;;;;;7.15;4.55;;;33.10;94.70;;;;;;5005849;28;20244;-71
2022/08/14 10:37:10;;;;;;;5.20;4.70;;;33.10;94.40;;;;;;5001517;28;20241;-71
2022/08/14 10:39:38;;;;;;;7.45;4.80;;;33.70;94.20;;;;;;5005092;28;20697;-71
2022/08/14 10:42:10;;;;;;;7.28;4.75;;;33.80;93.50;;;;;;5007791;28;20583;-71
2022/08/14 10:44:38;;;;;;;8.18;5.03;;;33.30;93.60;;;;;;4989544;28;20252;-70
2022/08/14 10:47:09;;;;;;;8.63;5.50;;;32.80;93.90;;;;;;4989455;28;20209;-71
2022/08/14 10:49:48;;;;;;;6.95;4.80;;;32.30;94.10;;;;;;5011503;28;20698;-70
2022/08/14 10:52:20;;;;;;;9.27;5.15;;;32.50;94.40;;;;;;5008590;28;20661;-71
2022/08/14 10:54:47;;;;;;;7.60;4.53;;;32.20;94.90;;;;;;5011550;28;20209;-70
2022/08/14 10:57:23;;;;;;;6.32;4.60;;;32.60;94.70;;;;;;5009188;28;20209;-71
2022/08/14 10:59:54;;;;;;;5.53;5.03;;;32.80;94.40;;;;;;5007949;28;20267;-72
2022/08/14 11:02:30;;;;;;;7.40;4.30;;;32.60;94.30;;;;;;4993067;28;20217;-71
2022/08/14 11:05:01;;;;;;;6.03;4.28;;;32.60;94.00;;;;;;5006918;28;20251;-70
2022/08/14 11:07:27;;;;;;;4.90;4.40;;;32.70;94.20;;;;;;5011233;28;20607;-71
2022/08/14 11:09:59;;;;;;;4.88;4.47;;;32.80;93.90;;;;;;5009212;28;20221;-71
2022/08/14 11:12:26;;;;;;;5.40;4.50;;;32.50;93.90;;;;;;5003535;28;20288;-71
2022/08/14 11:14:58;;;;;;;5.05;4.40;;;32.50;94.30;;;;;;5012401;28;20220;-72
2022/08/14 11:17:29;;;;;;;4.50;4.15;;;32.90;94.30;;;;;;5012974;28;20223;-71
2022/08/14 11:19:58;;;;;;;5.93;4.60;;;32.60;93.60;;;;;;5009802;28;20209;-71
2022/08/14 11:22:28;;;;;;;6.35;4.78;;;33.00;94.20;;;;;;5005660;28;20316;-70
2022/08/14 11:24:55;;;;;;;6.40;4.28;;;33.30;93.90;;;;;;5011439;28;20236;-71
2022/08/14 11:27:24;;;;;;;5.07;4.57;;;33.00;93.40;;;;;;5006180;28;20210;-71
2022/08/14 11:29:49;;;;;;;4.70;4.30;;;32.70;92.80;;;;;;5005799;28;20205;-71
2022/08/14 11:32:18;;;;;;;5.68;4.72;;;32.50;93.50;;;;;;5008442;28;20706;-70
2022/08/14 11:34:44;;;;;;;8.73;5.05;;;32.50;93.50;;;;;;5012103;28;20177;-71
2022/08/14 11:37:10;;;;;;;6.57;5.00;;;32.70;93.60;;;;;;5006437;28;20181;-71
2022/08/14 11:39:36;;;;;;;5.95;4.75;;;33.10;93.10;;;;;;5005905;28;20224;-70
2022/08/14 11:42:04;;;;;;;5.78;5.30;;;33.20;93.20;;;;;;5026115;28;20581;-71
2022/08/14 11:44:29;;;;;;;4.55;4.25;;;33.60;93.00;;;;;;4993241;28;20715;-71
2022/08/14 11:46:55;;;;;;;6.10;4.53;;;33.40;93.00;;;;;;5005903;28;20208;-71
2022/08/14 11:49:29;;;;;;;5.03;4.53;;;32.90;93.30;;;;;;5011416;28;20685;-71
2022/08/14 11:51:55;;;;;;;8.10;4.95;;;32.70;93.40;;;;;;5008334;28;20205;-70
2022/08/14 11:54:21;;;;;;;5.35;4.53;;;32.50;93.80;;;;;;5003153;28;20260;-70
2022/08/14 11:56:51;;;;;;;4.90;4.35;;;32.50;93.60;;;;;;5008574;28;20201;-71
2022/08/14 11:59:21;;;;;;;5.28;4.55;;;32.50;93.70;;;;;;5009030;28;20220;-71
2022/08/14 12:01:47;;;;;;;5.88;4.63;;;32.10;93.80;;;;;;5006307;28;20174;-71
2022/08/14 12:04:18;;;;;;;6.00;5.32;;;32.10;94.10;;;;;;5003922;28;20840;-71
2022/08/14 12:06:57;;;;;;;6.63;5.40;;;32.20;93.80;;;;;;5011080;28;20212;-70
2022/08/14 12:09:31;;;;;;;5.60;4.95;;;31.90;92.80;;;;;;5006528;28;20292;-70
2022/08/14 12:11:57;;;;;;;9.40;5.10;;;32.00;92.10;;;;;;5005296;28;20201;-72
2022/08/14 12:14:23;;;;;;;5.30;4.70;;;31.90;92.10;;;;;;5004882;28;20201;-72
2022/08/14 12:17:05;;;;;;;7.28;5.00;;;31.70;92.50;;;;;;5009776;28;20621;-71
2022/08/14 12:19:41;;;;;;;8.77;4.63;;;31.70;91.90;;;;;;5004399;28;20277;-71
2022/08/14 12:22:07;;;;;;;5.45;4.97;;;32.00;92.00;;;;;;5005732;28;20539;-71
2022/08/14 12:24:32;;;;;;;5.15;4.60;;;32.30;92.20;;;;;;5009582;28;20214;-71
2022/08/14 12:26:59;;;;;;;6.32;4.95;;;32.50;92.10;;;;;;5008436;28;20200;-72
2022/08/14 12:29:24;;;;;;;5.57;5.00;;;32.40;91.40;;;;;;5002332;28;20649;-71
2022/08/14 12:32:03;;;;;;;5.80;5.00;;;32.30;91.20;;;;;;5011365;28;20233;-72
2022/08/14 12:34:33;;;;;;;6.80;5.05;;;32.30;91.50;;;;;;5007287;28;20201;-72
2022/08/14 12:37:07;;;;;;;7.20;4.85;;;32.40;91.80;;;;;;5006178;28;20169;-72
2022/08/14 12:39:34;;;;;;;5.43;4.47;;;32.40;91.70;;;;;;5007454;28;20260;-70
2022/08/14 12:42:07;;;;;;;7.32;4.97;;;32.40;92.20;;;;;;5009000;28;20205;-71
2022/08/14 12:44:36;;;;;;;6.28;5.20;;;31.90;92.70;;;;;;5005431;28;20224;-71
2022/08/14 12:47:16;;;;;;;6.68;4.85;;;31.60;92.80;;;;;;5005422;28;20213;-71
2022/08/14 12:49:53;;;;;;;6.25;5.65;;;31.70;93.00;;;;;;4991873;28;20208;-72
2022/08/14 12:52:32;;;;;;;5.50;5.00;;;32.00;93.10;;;;;;5006927;28;20183;-72
2022/08/14 12:55:06;;;;;;;5.97;4.72;;;32.20;92.80;;;;;;5005244;28;20208;-71
2022/08/14 12:57:40;;;;;;;5.80;5.22;;;32.20;92.60;;;;;;5008696;28;20689;-72
2022/08/14 13:00:19;;;;;;;8.15;5.80;;;32.20;92.50;;;;;;5023449;28;20212;-72
2022/08/14 13:02:49;;;;;;;6.72;5.65;;;31.90;92.70;;;;;;5009230;28;20289;-71
2022/08/14 13:05:14;;;;;;;8.45;4.85;;;32.00;92.90;;;;;;5004192;28;20221;-73
2022/08/14 13:07:42;;;;;;;5.40;4.93;;;32.00;93.00;;;;;;5009853;28;20835;-72
2022/08/14 13:10:15;;;;;;;7.38;5.30;;;32.00;93.20;;;;;;4988945;28;20727;-72